sensor_id;sensor_type;location;lat;lon;timestamp;temperature;humidity
13440;DHT22;6792;57.698;11.946;2023-05-23T00:00:19;24.40;33.40
13440;DHT22;6792;57.698;11.946;2023-05-23T00:02:49;24.40;33.40
13440;DHT22;6792;57.698;11.946;2023-05-23T00:05:18;24.40;33.40
13440;DHT22;6792;57.698;11.946;2023-05-23T00:07:47;24.40;33.40
13440;DHT22;6792;57.698;11.946;2023-05-23T00:10:19;24.40;33.40
13440;DHT22;6792;57.698;11.946;2023-05-23T00:12:48;24.40;33.50
13440;DHT22;6792;57.698;11.946;2023-05-23T00:15:19;24.40;33.50
13440;DHT22;6792;57.698;11.946;2023-05-23T00:17:49;24.30;33.50
13440;DHT22;6792;57.698;11.946;2023-05-23T00:20:19;24.30;33.60
13440;DHT22;6792;57.698;11.946;2023-05-23T00:22:49;24.30;33.60
13440;DHT22;6792;57.698;11.946;2023-05-23T00:25:19;24.30;33.70
13440;DHT22;6792;57.698;11.946;2023-05-23T00:27:51;24.30;33.70
13440;DHT22;6792;57.698;11.946;2023-05-23T00:30:20;24.30;33.70
13440;DHT22;6792;57.698;11.946;2023-05-23T00:32:50;24.30;33.70
13440;DHT22;6792;57.698;11.946;2023-05-23T00:35:21;24.30;33.70
13440;DHT22;6792;57.698;11.946;2023-05-23T00:37:51;24.20;33.70
13440;DHT22;6792;57.698;11.946;2023-05-23T00:40:21;24.20;33.70
13440;DHT22;6792;57.698;11.946;2023-05-23T00:42:50;24.20;33.20
13440;DHT22;6792;57.698;11.946;2023-05-23T00:45:20;24.20;33.80
13440;DHT22;6792;57.698;11.946;2023-05-23T00:47:50;24.20;33.80
13440;DHT22;6792;57.698;11.946;2023-05-23T00:50:21;24.20;33.70
13440;DHT22;6792;57.698;11.946;2023-05-23T00:52:51;24.20;33.80
13440;DHT22;6792;57.698;11.946;2023-05-23T00:55:20;24.20;33.80
13440;DHT22;6792;57.698;11.946;2023-05-23T00:57:52;24.20;33.80
13440;DHT22;6792;57.698;11.946;2023-05-23T01:00:23;24.20;33.80
13440;DHT22;6792;57.698;11.946;2023-05-23T01:02:53;24.10;33.80
13440;DHT22;6792;57.698;11.946;2023-05-23T01:05:22;24.10;34.40
13440;DHT22;6792;57.698;11.946;2023-05-23T01:07:52;24.10;33.70
13440;DHT22;6792;57.698;11.946;2023-05-23T01:10:23;24.10;33.60
13440;DHT22;6792;57.698;11.946;2023-05-23T01:13:09;24.10;33.60
13440;DHT22;6792;57.698;11.946;2023-05-23T01:15:41;24.10;33.60
13440;DHT22;6792;57.698;11.946;2023-05-23T01:18:12;24.10;33.60
13440;DHT22;6792;57.698;11.946;2023-05-23T01:20:47;24.00;33.00
13440;DHT22;6792;57.698;11.946;2023-05-23T01:23:27;23.90;33.00
13440;DHT22;6792;57.698;11.946;2023-05-23T01:26:09;23.90;33.00
13440;DHT22;6792;57.698;11.946;2023-05-23T01:28:42;23.90;33.60
13440;DHT22;6792;57.698;11.946;2023-05-23T01:31:11;23.90;33.50
13440;DHT22;6792;57.698;11.946;2023-05-23T01:33:41;23.90;33.60
13440;DHT22;6792;57.698;11.946;2023-05-23T01:36:13;23.80;32.90
13440;DHT22;6792;57.698;11.946;2023-05-23T01:38:42;23.80;33.50
13440;DHT22;6792;57.698;11.946;2023-05-23T01:41:12;23.80;33.50
13440;DHT22;6792;57.698;11.946;2023-05-23T01:43:41;23.80;33.50
13440;DHT22;6792;57.698;11.946;2023-05-23T01:46:11;23.80;33.30
13440;DHT22;6792;57.698;11.946;2023-05-23T01:48:41;23.80;33.40
13440;DHT22;6792;57.698;11.946;2023-05-23T01:51:11;23.80;33.40
13440;DHT22;6792;57.698;11.946;2023-05-23T01:53:40;23.80;33.40
13440;DHT22;6792;57.698;11.946;2023-05-23T01:56:11;23.80;33.40
13440;DHT22;6792;57.698;11.946;2023-05-23T01:58:41;23.80;33.40
13440;DHT22;6792;57.698;11.946;2023-05-23T02:01:11;23.70;33.40
13440;DHT22;6792;57.698;11.946;2023-05-23T02:03:40;23.70;33.40
13440;DHT22;6792;57.698;11.946;2023-05-23T02:06:10;23.70;33.40
13440;DHT22;6792;57.698;11.946;2023-05-23T02:08:39;23.70;33.40
13440;DHT22;6792;57.698;11.946;2023-05-23T02:11:08;23.70;32.90
13440;DHT22;6792;57.698;11.946;2023-05-23T02:13:38;23.70;33.40
13440;DHT22;6792;57.698;11.946;2023-05-23T02:16:08;23.60;33.40
13440;DHT22;6792;57.698;11.946;2023-05-23T02:18:38;23.60;33.50
13440;DHT22;6792;57.698;11.946;2023-05-23T02:21:07;23.60;33.50
13440;DHT22;6792;57.698;11.946;2023-05-23T02:23:36;23.60;33.60
13440;DHT22;6792;57.698;11.946;2023-05-23T02:26:06;23.60;33.70
13440;DHT22;6792;57.698;11.946;2023-05-23T02:28:35;23.60;33.10
13440;DHT22;6792;57.698;11.946;2023-05-23T02:31:04;23.60;33.60
13440;DHT22;6792;57.698;11.946;2023-05-23T02:33:34;23.60;33.70
13440;DHT22;6792;57.698;11.946;2023-05-23T02:36:04;23.60;33.60
13440;DHT22;6792;57.698;11.946;2023-05-23T02:38:33;23.60;33.60
13440;DHT22;6792;57.698;11.946;2023-05-23T02:41:03;23.60;33.60
13440;DHT22;6792;57.698;11.946;2023-05-23T02:43:32;23.70;33.70
13440;DHT22;6792;57.698;11.946;2023-05-23T02:46:01;23.60;33.70
13440;DHT22;6792;57.698;11.946;2023-05-23T02:48:31;23.60;33.70
13440;DHT22;6792;57.698;11.946;2023-05-23T02:51:00;23.70;33.70
13440;DHT22;6792;57.698;11.946;2023-05-23T02:53:29;23.60;33.10
13440;DHT22;6792;57.698;11.946;2023-05-23T02:55:59;23.70;33.70
13440;DHT22;6792;57.698;11.946;2023-05-23T02:58:28;23.70;33.80
13440;DHT22;6792;57.698;11.946;2023-05-23T03:00:57;23.60;33.70
13440;DHT22;6792;57.698;11.946;2023-05-23T03:03:27;23.70;33.70
13440;DHT22;6792;57.698;11.946;2023-05-23T03:05:58;23.60;33.70
13440;DHT22;6792;57.698;11.946;2023-05-23T03:08:27;23.60;33.70
13440;DHT22;6792;57.698;11.946;2023-05-23T03:10:56;23.60;33.70
13440;DHT22;6792;57.698;11.946;2023-05-23T03:13:27;23.60;33.70
13440;DHT22;6792;57.698;11.946;2023-05-23T03:15:56;23.60;33.30
13440;DHT22;6792;57.698;11.946;2023-05-23T03:18:25;23.60;33.80
13440;DHT22;6792;57.698;11.946;2023-05-23T03:20:55;23.60;33.90
13440;DHT22;6792;57.698;11.946;2023-05-23T03:23:24;23.50;33.90
13440;DHT22;6792;57.698;11.946;2023-05-23T03:25:53;23.50;33.30
13440;DHT22;6792;57.698;11.946;2023-05-23T03:28:22;23.50;33.90
13440;DHT22;6792;57.698;11.946;2023-05-23T03:30:52;23.50;34.00
13440;DHT22;6792;57.698;11.946;2023-05-23T03:33:21;23.50;34.00
13440;DHT22;6792;57.698;11.946;2023-05-23T03:35:50;23.50;34.00
13440;DHT22;6792;57.698;11.946;2023-05-23T03:38:20;23.50;34.00
13440;DHT22;6792;57.698;11.946;2023-05-23T03:40:50;23.50;33.50
13440;DHT22;6792;57.698;11.946;2023-05-23T03:43:19;23.50;33.50
13440;DHT22;6792;57.698;11.946;2023-05-23T03:45:48;23.50;34.10
13440;DHT22;6792;57.698;11.946;2023-05-23T03:48:18;23.50;34.00
13440;DHT22;6792;57.698;11.946;2023-05-23T03:50:50;23.50;34.10
13440;DHT22;6792;57.698;11.946;2023-05-23T03:53:19;23.40;33.50
13440;DHT22;6792;57.698;11.946;2023-05-23T03:55:49;23.40;33.50
13440;DHT22;6792;57.698;11.946;2023-05-23T03:58:19;23.40;34.00
13440;DHT22;6792;57.698;11.946;2023-05-23T04:00:49;23.40;34.10
13440;DHT22;6792;57.698;11.946;2023-05-23T04:03:20;23.40;34.10
13440;DHT22;6792;57.698;11.946;2023-05-23T04:05:49;23.40;33.60
13440;DHT22;6792;57.698;11.946;2023-05-23T04:08:18;23.40;34.20
13440;DHT22;6792;57.698;11.946;2023-05-23T04:10:49;23.40;34.20
13440;DHT22;6792;57.698;11.946;2023-05-23T04:13:18;23.40;34.20
13440;DHT22;6792;57.698;11.946;2023-05-23T04:15:48;23.30;34.20
13440;DHT22;6792;57.698;11.946;2023-05-23T04:18:19;23.30;34.20
13440;DHT22;6792;57.698;11.946;2023-05-23T04:20:49;23.30;33.70
13440;DHT22;6792;57.698;11.946;2023-05-23T04:23:21;23.30;34.30
13440;DHT22;6792;57.698;11.946;2023-05-23T04:25:50;23.30;34.30
13440;DHT22;6792;57.698;11.946;2023-05-23T04:28:20;23.30;34.30
13440;DHT22;6792;57.698;11.946;2023-05-23T04:30:49;23.30;33.70
13440;DHT22;6792;57.698;11.946;2023-05-23T04:33:18;23.40;34.40
13440;DHT22;6792;57.698;11.946;2023-05-23T04:35:48;23.40;34.30
13440;DHT22;6792;57.698;11.946;2023-05-23T04:38:20;23.40;34.30
13440;DHT22;6792;57.698;11.946;2023-05-23T04:40:52;23.40;33.80
13440;DHT22;6792;57.698;11.946;2023-05-23T04:43:24;23.10;33.70
13440;DHT22;6792;57.698;11.946;2023-05-23T04:45:55;23.40;34.40
13440;DHT22;6792;57.698;11.946;2023-05-23T04:48:25;23.40;34.30
13440;DHT22;6792;57.698;11.946;2023-05-23T04:50:54;23.40;34.30
13440;DHT22;6792;57.698;11.946;2023-05-23T04:53:24;23.40;34.30
13440;DHT22;6792;57.698;11.946;2023-05-23T04:55:53;23.40;34.40
13440;DHT22;6792;57.698;11.946;2023-05-23T04:58:22;23.40;34.40
13440;DHT22;6792;57.698;11.946;2023-05-23T05:00:53;23.40;34.40
13440;DHT22;6792;57.698;11.946;2023-05-23T05:03:23;23.50;33.90
13440;DHT22;6792;57.698;11.946;2023-05-23T05:05:53;23.50;33.90
13440;DHT22;6792;57.698;11.946;2023-05-23T05:08:23;23.50;34.40
13440;DHT22;6792;57.698;11.946;2023-05-23T05:10:53;23.50;34.30
13440;DHT22;6792;57.698;11.946;2023-05-23T05:13:23;23.50;34.30
13440;DHT22;6792;57.698;11.946;2023-05-23T05:15:52;23.50;34.40
13440;DHT22;6792;57.698;11.946;2023-05-23T05:18:22;23.60;34.50
13440;DHT22;6792;57.698;11.946;2023-05-23T05:20:51;23.60;34.40
13440;DHT22;6792;57.698;11.946;2023-05-23T05:23:25;23.50;34.30
13440;DHT22;6792;57.698;11.946;2023-05-23T05:25:51;23.50;34.40
13440;DHT22;6792;57.698;11.946;2023-05-23T05:28:21;23.50;34.40
13440;DHT22;6792;57.698;11.946;2023-05-23T05:31:10;23.50;34.40
13440;DHT22;6792;57.698;11.946;2023-05-23T05:33:41;23.50;33.70
13440;DHT22;6792;57.698;11.946;2023-05-23T05:36:18;23.50;34.20
13440;DHT22;6792;57.698;11.946;2023-05-23T05:38:48;23.50;34.30
13440;DHT22;6792;57.698;11.946;2023-05-23T05:41:18;23.50;34.30
13440;DHT22;6792;57.698;11.946;2023-05-23T05:43:48;23.50;33.70
13440;DHT22;6792;57.698;11.946;2023-05-23T05:46:18;23.50;34.30
13440;DHT22;6792;57.698;11.946;2023-05-23T05:48:47;23.40;33.60
13440;DHT22;6792;57.698;11.946;2023-05-23T05:51:17;23.50;34.10
13440;DHT22;6792;57.698;11.946;2023-05-23T05:53:46;23.50;34.10
13440;DHT22;6792;57.698;11.946;2023-05-23T05:56:17;23.40;34.00
13440;DHT22;6792;57.698;11.946;2023-05-23T05:58:48;23.30;34.10
13440;DHT22;6792;57.698;11.946;2023-05-23T06:01:20;23.30;34.20
13440;DHT22;6792;57.698;11.946;2023-05-23T06:03:50;23.30;34.40
13440;DHT22;6792;57.698;11.946;2023-05-23T06:06:19;23.30;34.30
13440;DHT22;6792;57.698;11.946;2023-05-23T06:08:51;23.30;34.30
13440;DHT22;6792;57.698;11.946;2023-05-23T06:11:20;23.30;34.30
13440;DHT22;6792;57.698;11.946;2023-05-23T06:13:50;23.30;34.30
13440;DHT22;6792;57.698;11.946;2023-05-23T06:16:19;23.20;34.40
13440;DHT22;6792;57.698;11.946;2023-05-23T06:18:48;23.20;34.40
13440;DHT22;6792;57.698;11.946;2023-05-23T06:21:18;23.20;33.90
13440;DHT22;6792;57.698;11.946;2023-05-23T06:23:50;23.20;34.50
13440;DHT22;6792;57.698;11.946;2023-05-23T06:26:21;23.30;34.70
13440;DHT22;6792;57.698;11.946;2023-05-23T06:28:50;23.20;34.00
13440;DHT22;6792;57.698;11.946;2023-05-23T06:31:19;23.20;35.20
13440;DHT22;6792;57.698;11.946;2023-05-23T06:33:49;23.20;34.60
13440;DHT22;6792;57.698;11.946;2023-05-23T06:36:21;23.20;34.50
13440;DHT22;6792;57.698;11.946;2023-05-23T06:38:50;23.20;34.50
13440;DHT22;6792;57.698;11.946;2023-05-23T06:41:20;23.20;34.40
13440;DHT22;6792;57.698;11.946;2023-05-23T06:43:49;23.20;33.70
13440;DHT22;6792;57.698;11.946;2023-05-23T06:46:18;23.20;34.30
13440;DHT22;6792;57.698;11.946;2023-05-23T06:48:48;23.30;34.30
13440;DHT22;6792;57.698;11.946;2023-05-23T06:51:17;23.30;34.20
13440;DHT22;6792;57.698;11.946;2023-05-23T06:53:50;23.20;33.50
13440;DHT22;6792;57.698;11.946;2023-05-23T06:56:20;23.30;34.10
13440;DHT22;6792;57.698;11.946;2023-05-23T06:58:50;23.30;34.20
13440;DHT22;6792;57.698;11.946;2023-05-23T07:01:19;23.30;34.10
13440;DHT22;6792;57.698;11.946;2023-05-23T07:03:52;23.20;34.00
13440;DHT22;6792;57.698;11.946;2023-05-23T07:06:21;23.20;34.10
13440;DHT22;6792;57.698;11.946;2023-05-23T07:08:51;23.20;33.60
13440;DHT22;6792;57.698;11.946;2023-05-23T07:11:21;23.10;33.60
13440;DHT22;6792;57.698;11.946;2023-05-23T07:13:52;23.20;33.70
13440;DHT22;6792;57.698;11.946;2023-05-23T07:16:22;23.20;34.30
13440;DHT22;6792;57.698;11.946;2023-05-23T07:18:51;23.30;34.40
13440;DHT22;6792;57.698;11.946;2023-05-23T07:21:20;23.30;34.50
13440;DHT22;6792;57.698;11.946;2023-05-23T07:23:50;23.30;34.60
13440;DHT22;6792;57.698;11.946;2023-05-23T07:26:19;23.30;34.50
13440;DHT22;6792;57.698;11.946;2023-05-23T07:28:50;23.30;34.40
13440;DHT22;6792;57.698;11.946;2023-05-23T07:31:19;23.30;34.30
13440;DHT22;6792;57.698;11.946;2023-05-23T07:33:49;23.30;34.20
13440;DHT22;6792;57.698;11.946;2023-05-23T07:36:19;23.30;34.20
13440;DHT22;6792;57.698;11.946;2023-05-23T07:38:49;23.40;34.10
13440;DHT22;6792;57.698;11.946;2023-05-23T07:41:20;23.40;34.00
13440;DHT22;6792;57.698;11.946;2023-05-23T07:43:49;23.40;33.90
13440;DHT22;6792;57.698;11.946;2023-05-23T07:46:19;23.40;33.80
13440;DHT22;6792;57.698;11.946;2023-05-23T07:48:49;23.50;33.70
13440;DHT22;6792;57.698;11.946;2023-05-23T07:51:20;23.50;33.70
13440;DHT22;6792;57.698;11.946;2023-05-23T07:53:49;23.50;33.60
13440;DHT22;6792;57.698;11.946;2023-05-23T07:56:19;23.50;33.50
13440;DHT22;6792;57.698;11.946;2023-05-23T07:58:48;23.50;33.50
13440;DHT22;6792;57.698;11.946;2023-05-23T08:01:18;23.60;33.60
13440;DHT22;6792;57.698;11.946;2023-05-23T08:03:48;23.60;33.50
13440;DHT22;6792;57.698;11.946;2023-05-23T08:06:18;23.60;33.40
13440;DHT22;6792;57.698;11.946;2023-05-23T08:08:47;23.60;33.40
13440;DHT22;6792;57.698;11.946;2023-05-23T08:11:19;23.60;32.90
13440;DHT22;6792;57.698;11.946;2023-05-23T08:13:48;23.60;33.50
13440;DHT22;6792;57.698;11.946;2023-05-23T08:16:18;23.60;33.40
13440;DHT22;6792;57.698;11.946;2023-05-23T08:18:50;23.60;33.50
13440;DHT22;6792;57.698;11.946;2023-05-23T08:21:20;23.60;33.00
13440;DHT22;6792;57.698;11.946;2023-05-23T08:23:49;23.60;33.00
13440;DHT22;6792;57.698;11.946;2023-05-23T08:26:19;23.70;33.60
13440;DHT22;6792;57.698;11.946;2023-05-23T08:28:48;23.70;33.50
13440;DHT22;6792;57.698;11.946;2023-05-23T08:31:18;23.70;32.90
13440;DHT22;6792;57.698;11.946;2023-05-23T08:33:47;23.80;33.40
13440;DHT22;6792;57.698;11.946;2023-05-23T08:36:17;23.80;32.80
13440;DHT22;6792;57.698;11.946;2023-05-23T08:38:50;23.80;33.30
13440;DHT22;6792;57.698;11.946;2023-05-23T08:41:20;23.80;33.20
13440;DHT22;6792;57.698;11.946;2023-05-23T08:43:50;23.80;33.00
13440;DHT22;6792;57.698;11.946;2023-05-23T08:46:22;23.80;32.90
13440;DHT22;6792;57.698;11.946;2023-05-23T08:48:53;23.80;32.10
13440;DHT22;6792;57.698;11.946;2023-05-23T08:54:12;23.90;31.90
13440;DHT22;6792;57.698;11.946;2023-05-23T08:56:43;23.90;32.50
13440;DHT22;6792;57.698;11.946;2023-05-23T08:59:13;23.90;32.40
13440;DHT22;6792;57.698;11.946;2023-05-23T09:01:47;23.90;31.70
13440;DHT22;6792;57.698;11.946;2023-05-23T09:04:16;24.00;32.40
13440;DHT22;6792;57.698;11.946;2023-05-23T09:06:46;24.00;31.80
13440;DHT22;6792;57.698;11.946;2023-05-23T09:09:16;24.00;32.30
13440;DHT22;6792;57.698;11.946;2023-05-23T09:11:46;24.10;32.30
13440;DHT22;6792;57.698;11.946;2023-05-23T09:14:19;24.10;32.20
13440;DHT22;6792;57.698;11.946;2023-05-23T09:16:49;24.10;32.30
13440;DHT22;6792;57.698;11.946;2023-05-23T09:19:19;24.20;33.00
13440;DHT22;6792;57.698;11.946;2023-05-23T09:21:48;24.20;32.60
13440;DHT22;6792;57.698;11.946;2023-05-23T09:24:18;24.20;32.10
13440;DHT22;6792;57.698;11.946;2023-05-23T09:26:50;24.30;32.80
13440;DHT22;6792;57.698;11.946;2023-05-23T09:29:20;24.30;32.80
13440;DHT22;6792;57.698;11.946;2023-05-23T09:31:50;24.30;32.90
13440;DHT22;6792;57.698;11.946;2023-05-23T09:34:19;24.40;33.00
13440;DHT22;6792;57.698;11.946;2023-05-23T09:36:51;24.40;33.00
13440;DHT22;6792;57.698;11.946;2023-05-23T09:39:22;24.40;33.00
13440;DHT22;6792;57.698;11.946;2023-05-23T09:41:51;24.40;32.60
13440;DHT22;6792;57.698;11.946;2023-05-23T09:44:23;24.40;33.20
13440;DHT22;6792;57.698;11.946;2023-05-23T09:46:53;24.50;33.40
13440;DHT22;6792;57.698;11.946;2023-05-23T09:49:22;24.50;33.40
13440;DHT22;6792;57.698;11.946;2023-05-23T09:52:00;24.50;33.50
13440;DHT22;6792;57.698;11.946;2023-05-23T09:54:29;24.50;34.30
13440;DHT22;6792;57.698;11.946;2023-05-23T09:57:00;24.50;33.80
13440;DHT22;6792;57.698;11.946;2023-05-23T10:02:12;24.50;33.50
13440;DHT22;6792;57.698;11.946;2023-05-23T10:04:44;24.50;34.00
13440;DHT22;6792;57.698;11.946;2023-05-23T10:07:19;24.50;33.90
13440;DHT22;6792;57.698;11.946;2023-05-23T10:09:52;24.50;33.80
13440;DHT22;6792;57.698;11.946;2023-05-23T10:12:42;24.50;33.70
13440;DHT22;6792;57.698;11.946;2023-05-23T10:15:14;24.50;33.60
13440;DHT22;6792;57.698;11.946;2023-05-23T10:17:59;24.40;32.90
13440;DHT22;6792;57.698;11.946;2023-05-23T10:20:32;24.40;32.80
13440;DHT22;6792;57.698;11.946;2023-05-23T10:23:02;24.30;33.30
13440;DHT22;6792;57.698;11.946;2023-05-23T10:25:33;24.30;33.30
13440;DHT22;6792;57.698;11.946;2023-05-23T10:28:05;24.20;33.50
13440;DHT22;6792;57.698;11.946;2023-05-23T10:30:35;24.20;33.40
13440;DHT22;6792;57.698;11.946;2023-05-23T10:33:14;24.20;33.50
13440;DHT22;6792;57.698;11.946;2023-05-23T10:35:56;24.00;33.30
13440;DHT22;6792;57.698;11.946;2023-05-23T10:38:36;24.00;34.10
13440;DHT22;6792;57.698;11.946;2023-05-23T10:41:09;23.90;34.10
13440;DHT22;6792;57.698;11.946;2023-05-23T10:43:47;23.90;34.90
13440;DHT22;6792;57.698;11.946;2023-05-23T10:46:19;23.80;35.60
13440;DHT22;6792;57.698;11.946;2023-05-23T10:48:53;23.80;36.50
13440;DHT22;6792;57.698;11.946;2023-05-23T10:51:30;23.80;36.90
13440;DHT22;6792;57.698;11.946;2023-05-23T10:54:00;23.80;37.30
13440;DHT22;6792;57.698;11.946;2023-05-23T10:56:31;23.70;37.10
13440;DHT22;6792;57.698;11.946;2023-05-23T10:59:01;23.70;37.90
13440;DHT22;6792;57.698;11.946;2023-05-23T11:01:32;23.70;37.60
13440;DHT22;6792;57.698;11.946;2023-05-23T11:04:06;23.70;39.00
13440;DHT22;6792;57.698;11.946;2023-05-23T11:06:40;23.70;38.60
13440;DHT22;6792;57.698;11.946;2023-05-23T11:09:12;23.60;38.10
13440;DHT22;6792;57.698;11.946;2023-05-23T11:11:54;23.60;38.40
13440;DHT22;6792;57.698;11.946;2023-05-23T11:14:52;23.60;39.10
13440;DHT22;6792;57.698;11.946;2023-05-23T11:17:32;23.50;39.30
13440;DHT22;6792;57.698;11.946;2023-05-23T11:20:05;23.40;39.50
13440;DHT22;6792;57.698;11.946;2023-05-23T11:22:35;23.40;39.70
13440;DHT22;6792;57.698;11.946;2023-05-23T11:25:10;23.30;39.40
13440;DHT22;6792;57.698;11.946;2023-05-23T11:27:40;23.30;40.40
13440;DHT22;6792;57.698;11.946;2023-05-23T11:30:12;23.20;40.80
13440;DHT22;6792;57.698;11.946;2023-05-23T11:32:54;23.20;41.10
13440;DHT22;6792;57.698;11.946;2023-05-23T11:35:24;23.20;40.70
13440;DHT22;6792;57.698;11.946;2023-05-23T11:37:56;23.20;41.60
13440;DHT22;6792;57.698;11.946;2023-05-23T11:40:30;23.10;41.20
13440;DHT22;6792;57.698;11.946;2023-05-23T11:43:01;23.20;41.90
13440;DHT22;6792;57.698;11.946;2023-05-23T11:45:31;23.10;42.00
13440;DHT22;6792;57.698;11.946;2023-05-23T11:48:07;23.10;42.10
13440;DHT22;6792;57.698;11.946;2023-05-23T11:50:47;23.10;42.20
13440;DHT22;6792;57.698;11.946;2023-05-23T11:53:19;23.00;42.30
13440;DHT22;6792;57.698;11.946;2023-05-23T11:55:53;23.00;42.90
13440;DHT22;6792;57.698;11.946;2023-05-23T11:58:28;22.90;42.00
13440;DHT22;6792;57.698;11.946;2023-05-23T12:01:02;22.90;42.10
13440;DHT22;6792;57.698;11.946;2023-05-23T12:03:43;22.90;42.70
13440;DHT22;6792;57.698;11.946;2023-05-23T12:06:06;22.80;42.90
13440;DHT22;6792;57.698;11.946;2023-05-23T12:08:39;22.80;43.20
13440;DHT22;6792;57.698;11.946;2023-05-23T12:11:10;22.80;43.40
13440;DHT22;6792;57.698;11.946;2023-05-23T12:13:41;22.80;43.60
13440;DHT22;6792;57.698;11.946;2023-05-23T12:16:13;22.80;43.60
13440;DHT22;6792;57.698;11.946;2023-05-23T12:18:44;22.80;43.80
13440;DHT22;6792;57.698;11.946;2023-05-23T12:21:14;22.80;44.00
13440;DHT22;6792;57.698;11.946;2023-05-23T12:23:44;22.70;44.20
13440;DHT22;6792;57.698;11.946;2023-05-23T12:26:19;22.70;44.40
13440;DHT22;6792;57.698;11.946;2023-05-23T12:28:50;22.70;44.60
13440;DHT22;6792;57.698;11.946;2023-05-23T12:31:21;22.80;44.80
13440;DHT22;6792;57.698;11.946;2023-05-23T12:33:52;22.70;45.00
13440;DHT22;6792;57.698;11.946;2023-05-23T12:39:04;22.70;45.20
13440;DHT22;6792;57.698;11.946;2023-05-23T12:41:34;22.70;45.40
13440;DHT22;6792;57.698;11.946;2023-05-23T12:44:04;22.70;45.40
13440;DHT22;6792;57.698;11.946;2023-05-23T12:46:36;22.70;45.40
13440;DHT22;6792;57.698;11.946;2023-05-23T12:49:07;22.70;45.50
13440;DHT22;6792;57.698;11.946;2023-05-23T12:51:36;22.70;45.50
13440;DHT22;6792;57.698;11.946;2023-05-23T12:54:06;22.70;45.40
13440;DHT22;6792;57.698;11.946;2023-05-23T12:56:36;22.70;45.20
13440;DHT22;6792;57.698;11.946;2023-05-23T12:59:05;22.70;45.10
13440;DHT22;6792;57.698;11.946;2023-05-23T13:01:35;22.70;45.00
13440;DHT22;6792;57.698;11.946;2023-05-23T13:04:04;22.70;45.00
13440;DHT22;6792;57.698;11.946;2023-05-23T13:06:39;22.70;45.00
13440;DHT22;6792;57.698;11.946;2023-05-23T13:09:10;22.70;45.00
13440;DHT22;6792;57.698;11.946;2023-05-23T13:11:41;22.60;45.00
13440;DHT22;6792;57.698;11.946;2023-05-23T13:14:11;22.60;45.00
13440;DHT22;6792;57.698;11.946;2023-05-23T13:16:43;22.60;44.50
13440;DHT22;6792;57.698;11.946;2023-05-23T13:19:14;22.60;44.60
13440;DHT22;6792;57.698;11.946;2023-05-23T13:21:49;22.60;45.20
13440;DHT22;6792;57.698;11.946;2023-05-23T13:24:18;22.60;45.20
13440;DHT22;6792;57.698;11.946;2023-05-23T13:26:49;22.60;45.20
13440;DHT22;6792;57.698;11.946;2023-05-23T13:31:50;22.60;44.60
13440;DHT22;6792;57.698;11.946;2023-05-23T13:34:20;22.60;44.70
13440;DHT22;6792;57.698;11.946;2023-05-23T13:36:51;22.60;45.30
13440;DHT22;6792;57.698;11.946;2023-05-23T13:39:20;22.50;45.30
13440;DHT22;6792;57.698;11.946;2023-05-23T13:41:50;22.50;45.40
13440;DHT22;6792;57.698;11.946;2023-05-23T13:44:21;22.50;45.40
13440;DHT22;6792;57.698;11.946;2023-05-23T13:46:51;22.50;45.70
13440;DHT22;6792;57.698;11.946;2023-05-23T13:49:20;22.60;45.60
13440;DHT22;6792;57.698;11.946;2023-05-23T13:51:50;21.80;44.70
13440;DHT22;6792;57.698;11.946;2023-05-23T13:54:19;22.60;45.70
13440;DHT22;6792;57.698;11.946;2023-05-23T13:56:49;22.60;45.70
13440;DHT22;6792;57.698;11.946;2023-05-23T13:59:19;22.60;45.20
13440;DHT22;6792;57.698;11.946;2023-05-23T14:01:49;22.60;45.90
13440;DHT22;6792;57.698;11.946;2023-05-23T14:04:21;22.70;45.40
13440;DHT22;6792;57.698;11.946;2023-05-23T14:06:53;22.70;45.90
13440;DHT22;6792;57.698;11.946;2023-05-23T14:09:23;22.80;45.50
13440;DHT22;6792;57.698;11.946;2023-05-23T14:11:52;23.00;46.00
13440;DHT22;6792;57.698;11.946;2023-05-23T14:14:23;23.00;45.70
13440;DHT22;6792;57.698;11.946;2023-05-23T14:16:54;23.10;45.60
13440;DHT22;6792;57.698;11.946;2023-05-23T14:19:23;23.00;45.50
13440;DHT22;6792;57.698;11.946;2023-05-23T14:21:54;23.00;45.40
13440;DHT22;6792;57.698;11.946;2023-05-23T14:24:23;22.90;45.20
13440;DHT22;6792;57.698;11.946;2023-05-23T14:26:53;22.80;44.50
13440;DHT22;6792;57.698;11.946;2023-05-23T14:29:22;22.50;44.40
13440;DHT22;6792;57.698;11.946;2023-05-23T14:31:52;22.80;45.10
13440;DHT22;6792;57.698;11.946;2023-05-23T14:34:21;22.80;45.00
13440;DHT22;6792;57.698;11.946;2023-05-23T14:36:51;22.70;44.40
13440;DHT22;6792;57.698;11.946;2023-05-23T14:39:20;22.70;45.00
13440;DHT22;6792;57.698;11.946;2023-05-23T14:41:54;22.70;44.80
13440;DHT22;6792;57.698;11.946;2023-05-23T14:44:24;22.60;44.80
13440;DHT22;6792;57.698;11.946;2023-05-23T14:46:53;22.50;44.80
13440;DHT22;6792;57.698;11.946;2023-05-23T14:49:23;22.50;44.90
13440;DHT22;6792;57.698;11.946;2023-05-23T14:51:54;22.40;44.30
13440;DHT22;6792;57.698;11.946;2023-05-23T14:54:23;22.40;45.00
13440;DHT22;6792;57.698;11.946;2023-05-23T14:56:53;22.40;45.10
13440;DHT22;6792;57.698;11.946;2023-05-23T14:59:26;22.40;45.20
13440;DHT22;6792;57.698;11.946;2023-05-23T15:01:56;22.40;44.70
13440;DHT22;6792;57.698;11.946;2023-05-23T15:04:26;22.40;44.70
13440;DHT22;6792;57.698;11.946;2023-05-23T15:06:56;22.30;45.40
13440;DHT22;6792;57.698;11.946;2023-05-23T15:09:25;22.30;45.60
13440;DHT22;6792;57.698;11.946;2023-05-23T15:11:56;22.30;45.80
13440;DHT22;6792;57.698;11.946;2023-05-23T15:14:26;22.20;45.80
13440;DHT22;6792;57.698;11.946;2023-05-23T15:16:59;22.20;45.40
13440;DHT22;6792;57.698;11.946;2023-05-23T15:19:31;22.20;45.60
13440;DHT22;6792;57.698;11.946;2023-05-23T15:22:00;22.20;46.20
13440;DHT22;6792;57.698;11.946;2023-05-23T15:24:30;22.20;46.20
13440;DHT22;6792;57.698;11.946;2023-05-23T15:26:59;22.10;46.20
13440;DHT22;6792;57.698;11.946;2023-05-23T15:29:29;22.10;46.20
13440;DHT22;6792;57.698;11.946;2023-05-23T15:32:00;22.10;46.30
13440;DHT22;6792;57.698;11.946;2023-05-23T15:34:29;22.00;46.40
13440;DHT22;6792;57.698;11.946;2023-05-23T15:37:00;22.00;46.40
13440;DHT22;6792;57.698;11.946;2023-05-23T15:39:30;22.00;46.70
13440;DHT22;6792;57.698;11.946;2023-05-23T15:41:59;22.00;46.80
13440;DHT22;6792;57.698;11.946;2023-05-23T15:44:30;21.90;46.40
13440;DHT22;6792;57.698;11.946;2023-05-23T15:46:59;21.90;47.10
13440;DHT22;6792;57.698;11.946;2023-05-23T15:49:33;21.90;47.20
13440;DHT22;6792;57.698;11.946;2023-05-23T15:52:03;21.90;46.80
13440;DHT22;6792;57.698;11.946;2023-05-23T15:54:33;21.90;47.40
13440;DHT22;6792;57.698;11.946;2023-05-23T15:57:05;21.80;47.30
13440;DHT22;6792;57.698;11.946;2023-05-23T15:59:37;21.80;46.90
13440;DHT22;6792;57.698;11.946;2023-05-23T16:02:07;21.80;47.50